createdAt,value
2023-01-02T00:03:59.803Z,2.70
2023-01-02T00:14:05.078Z,2.90
2023-01-02T00:24:09.779Z,2.93
2023-01-02T00:34:14.858Z,2.90
2023-01-02T00:44:18.604Z,3.47
2023-01-02T00:54:23.678Z,2.27
2023-01-02T01:04:27.437Z,2.57
2023-01-02T01:14:32.487Z,2.10
2023-01-02T01:24:36.161Z,2.20
2023-01-02T01:34:41.135Z,2.47
2023-01-02T01:44:48.644Z,2.40
2023-01-02T01:55:01.748Z,2.23
2023-01-02T02:05:07.443Z,1.67
2023-01-02T02:15:19.074Z,1.33
2023-01-02T02:25:57.601Z,2.77
2023-01-02T02:36:16.522Z,2.27
2023-01-02T02:46:29.424Z,1.93
2023-01-02T02:56:35.774Z,1.63
2023-01-02T03:06:56.061Z,1.53
2023-01-02T03:17:04.899Z,1.70
2023-01-02T03:27:15.154Z,1.63
2023-01-02T03:37:26.453Z,1.93
2023-01-02T03:47:38.788Z,1.73
2023-01-02T03:57:57.611Z,1.40
2023-01-02T04:08:08.597Z,1.30
2023-01-02T04:18:17.449Z,1.33
2023-01-02T04:28:26.454Z,0.80
2023-01-02T04:38:33.628Z,1.10
2023-01-02T04:48:37.331Z,1.53
2023-01-02T04:58:42.359Z,1.40
2023-01-02T05:08:46.170Z,1.13
2023-01-02T05:18:51.090Z,1.43
2023-01-02T05:28:55.104Z,1.93
2023-01-02T05:39:00.893Z,1.57
2023-01-02T05:49:05.887Z,1.03
2023-01-02T05:59:10.884Z,0.97
2023-01-02T06:09:16.988Z,1.00
2023-01-02T06:19:21.973Z,1.37
2023-01-02T06:29:25.697Z,2.10
2023-01-02T06:39:30.632Z,2.17
2023-01-02T06:49:34.239Z,1.47
2023-01-02T06:59:39.174Z,0.93
2023-01-02T07:09:45.107Z,1.63
2023-01-02T07:19:53.953Z,1.70
2023-01-02T07:29:59.906Z,2.00
2023-01-02T07:40:05.611Z,2.27
2023-01-02T07:50:10.089Z,1.33
2023-01-02T08:00:16.299Z,1.20
2023-01-02T08:10:19.981Z,1.30
2023-01-02T08:20:25.988Z,1.10
2023-01-02T08:30:29.665Z,1.33
2023-01-02T08:40:34.932Z,1.37
2023-01-02T08:50:38.691Z,0.87
2023-01-02T09:00:46.310Z,0.63
2023-01-02T09:10:50.244Z,1.33
2023-01-02T09:20:56.352Z,1.07
2023-01-02T09:31:00.555Z,0.63
2023-01-02T09:41:23.225Z,0.50
2023-01-02T09:51:27.537Z,0.60
2023-01-02T10:01:49.133Z,0.63
2023-01-02T10:12:03.294Z,0.53
2023-01-02T10:22:11.149Z,1.00
2023-01-02T10:32:18.496Z,1.17
2023-01-02T10:42:23.981Z,0.90
2023-01-02T10:52:34.237Z,0.80
2023-01-02T11:02:42.390Z,0.67
2023-01-02T11:12:48.918Z,0.50
2023-01-02T11:22:59.207Z,0.70
2023-01-02T11:33:08.650Z,0.60
2023-01-02T11:43:31.182Z,0.93
2023-01-02T11:53:41.848Z,0.80
2023-01-02T12:03:47.297Z,0.77
2023-01-02T12:14:07.710Z,0.83
2023-01-02T12:24:41.492Z,0.80
2023-01-02T12:35:05.073Z,0.77
2023-01-02T12:45:18.734Z,0.80
2023-01-02T12:55:34.949Z,2.27
2023-01-02T13:05:46.910Z,0.67
2023-01-02T13:15:52.671Z,0.60
2023-01-02T13:26:03.101Z,0.80
2023-01-02T13:36:20.283Z,1.10
2023-01-02T13:57:32.627Z,1.57
2023-01-02T14:07:49.392Z,1.53
2023-01-02T14:18:04.297Z,1.00
2023-01-02T14:28:15.253Z,1.10
2023-01-02T14:38:22.902Z,1.27
2023-01-02T14:48:36.190Z,0.97
2023-01-02T14:58:43.398Z,1.00
2023-01-02T15:08:52.134Z,1.00
2023-01-02T15:18:59.324Z,0.90
2023-01-02T15:29:07.507Z,1.40
2023-01-02T15:39:18.285Z,0.57
2023-01-02T15:49:24.072Z,0.73
2023-01-02T15:59:31.937Z,0.30
2023-01-02T16:09:38.823Z,0.53
2023-01-02T16:19:58.283Z,0.50
2023-01-02T16:30:17.778Z,0.60
2023-01-02T16:41:03.075Z,0.50
2023-01-02T16:51:08.505Z,0.80
2023-01-02T17:01:14.449Z,1.00
2023-01-02T17:11:23.595Z,0.93
2023-01-02T17:21:32.491Z,1.00
2023-01-02T17:31:38.135Z,0.80
2023-01-02T17:41:41.845Z,1.00
2023-01-02T17:51:46.862Z,0.97
2023-01-02T18:01:50.865Z,0.90
2023-01-02T18:11:55.972Z,0.67
2023-01-02T18:21:59.801Z,0.73
2023-01-02T18:32:16.394Z,0.60
2023-01-02T18:42:23.196Z,0.57
2023-01-02T18:52:31.776Z,0.50
2023-01-02T19:02:40.797Z,0.40
2023-01-02T19:13:08.028Z,0.50
2023-01-02T19:23:27.638Z,0.43
2023-01-02T19:33:42.196Z,0.50
2023-01-02T19:43:45.902Z,0.20
2023-01-02T19:53:50.865Z,0.50
2023-01-02T20:03:54.490Z,0.70
2023-01-02T20:13:59.528Z,0.50
2023-01-02T20:24:03.343Z,0.33
2023-01-02T20:34:08.321Z,0.20
2023-01-02T20:44:14.288Z,0.73
2023-01-02T20:54:19.274Z,0.20
2023-01-02T21:04:29.323Z,0.50
2023-01-02T21:14:39.502Z,0.40
2023-01-02T21:24:43.256Z,0.20
2023-01-02T21:34:48.411Z,0.50
2023-01-02T21:44:52.282Z,0.53
2023-01-02T21:54:57.450Z,0.60
2023-01-02T22:05:01.086Z,0.70
2023-01-02T22:15:09.358Z,0.53
2023-01-02T22:25:12.947Z,0.40
2023-01-02T22:35:18.524Z,0.43
2023-01-02T22:45:27.504Z,0.37
2023-01-02T22:55:32.613Z,0.50
2023-01-02T23:05:36.264Z,0.40
2023-01-02T23:16:01.670Z,0.50
2023-01-02T23:26:06.022Z,0.47
2023-01-02T23:36:11.266Z,0.30
2023-01-02T23:46:15.010Z,0.27
2023-01-02T23:56:23.263Z,0.30
